Time;durP1;ratioP1;P1;durP2;ratioP2;P2;SDS_P1;SDS_P2;PMS_P1;PMS_P2;Temp;Humidity;BMP_temperature;BMP_pressure;BME280_temperature;BME280_humidity;BME280_pressure;Samples;Min_cycle;Max_cycle;Signal;HPM_P1;HPM_P2
2023/04/16 00:01:27;;;;;;;3.00;1.43;;;16.00;64.80;;;;;;5009806;28;20204;-77
2023/04/16 00:03:55;;;;;;;4.00;1.80;;;16.00;64.70;;;;;;5000257;28;20258;-77
2023/04/16 00:06:24;;;;;;;2.67;1.80;;;15.90;65.00;;;;;;5003814;28;20196;-77
2023/04/16 00:08:52;;;;;;;3.40;1.50;;;15.90;65.20;;;;;;5008100;28;20270;-77
2023/04/16 00:11:21;;;;;;;4.93;2.07;;;15.90;65.80;;;;;;5003689;28;20215;-76
2023/04/16 00:13:49;;;;;;;3.87;2.20;;;15.80;65.80;;;;;;5004338;28;20205;-77
2023/04/16 00:16:17;;;;;;;4.80;1.90;;;15.80;66.00;;;;;;5012468;28;20258;-77
2023/04/16 00:18:47;;;;;;;4.80;1.80;;;15.80;66.50;;;;;;5008863;28;20257;-78
2023/04/16 00:21:15;;;;;;;3.93;1.70;;;15.70;66.70;;;;;;5021005;28;20250;-77
2023/04/16 00:23:43;;;;;;;10.27;2.23;;;15.70;66.60;;;;;;5018673;28;20234;-77
2023/04/16 00:26:12;;;;;;;3.70;1.57;;;15.70;66.90;;;;;;5020140;28;20203;-77
2023/04/16 00:28:40;;;;;;;3.90;2.13;;;15.60;67.20;;;;;;5007964;28;20195;-77
2023/04/16 00:31:08;;;;;;;2.63;1.20;;;15.60;67.50;;;;;;5007530;28;20254;-77
2023/04/16 00:33:37;;;;;;;4.97;1.83;;;15.60;67.20;;;;;;5006600;28;20226;-77
2023/04/16 00:36:07;;;;;;;6.60;1.63;;;15.50;67.50;;;;;;5018472;28;20200;-77
2023/04/16 00:38:35;;;;;;;2.37;1.10;;;15.50;67.50;;;;;;5006357;28;20610;-77
2023/04/16 00:41:04;;;;;;;3.67;1.60;;;15.50;67.50;;;;;;5018237;28;20633;-77
2023/04/16 00:43:32;;;;;;;5.10;2.03;;;15.50;67.90;;;;;;5008164;28;20649;-78
2023/04/16 00:46:01;;;;;;;2.83;1.33;;;15.50;68.00;;;;;;5011597;28;20232;-77
2023/04/16 00:48:31;;;;;;;3.10;1.80;;;15.40;68.50;;;;;;5014856;28;20242;-77
2023/04/16 00:51:00;;;;;;;5.00;1.37;;;15.40;68.60;;;;;;5018684;28;20251;-77
2023/04/16 00:53:30;;;;;;;3.97;2.07;;;15.40;68.60;;;;;;5017001;28;20242;-77
2023/04/16 00:55:59;;;;;;;6.30;1.93;;;15.40;68.80;;;;;;5011003;28;20250;-76
2023/04/16 00:58:28;;;;;;;6.93;1.70;;;15.30;68.80;;;;;;5011817;28;20565;-76
2023/04/16 01:00:57;;;;;;;2.50;1.20;;;15.30;68.90;;;;;;5021440;28;20220;-77
2023/04/16 01:03:34;;;;;;;3.43;1.40;;;15.30;68.90;;;;;;5011498;28;20302;-77
2023/04/16 01:06:03;;;;;;;4.13;1.60;;;15.30;69.00;;;;;;5005885;28;20196;-77
2023/04/16 01:08:33;;;;;;;3.97;1.50;;;15.30;69.00;;;;;;5006358;28;20197;-78
2023/04/16 01:11:02;;;;;;;3.83;1.70;;;15.30;69.40;;;;;;5003902;28;20562;-78
2023/04/16 01:13:30;;;;;;;3.10;1.60;;;15.30;69.20;;;;;;5005648;28;20235;-77
2023/04/16 01:15:59;;;;;;;3.07;2.03;;;15.30;68.80;;;;;;5005504;28;20204;-77
2023/04/16 01:18:27;;;;;;;3.43;2.00;;;15.30;69.60;;;;;;5021103;28;20649;-77
2023/04/16 01:20:57;;;;;;;2.67;1.57;;;15.30;69.40;;;;;;5012787;28;20224;-76
2023/04/16 01:23:25;;;;;;;5.20;1.70;;;15.30;69.50;;;;;;5010520;28;20204;-78
2023/04/16 01:25:54;;;;;;;6.33;2.10;;;15.20;70.50;;;;;;5010818;28;20196;-76
2023/04/16 01:28:23;;;;;;;4.57;2.13;;;15.20;71.90;;;;;;5003223;28;20197;-77
2023/04/16 01:30:51;;;;;;;4.70;2.60;;;15.20;71.80;;;;;;5007107;28;20215;-76
2023/04/16 01:33:19;;;;;;;2.63;1.47;;;15.10;73.00;;;;;;5009939;28;20695;-77
2023/04/16 01:35:48;;;;;;;4.03;1.87;;;15.10;73.40;;;;;;5011479;28;20201;-77
2023/04/16 01:38:18;;;;;;;1.77;1.30;;;15.00;74.40;;;;;;5013969;28;20197;-78
2023/04/16 01:40:46;;;;;;;4.83;1.47;;;15.00;74.30;;;;;;5017502;28;20216;-77
2023/04/16 01:43:16;;;;;;;6.30;1.83;;;15.00;74.20;;;;;;5019907;28;20231;-76
2023/04/16 01:45:44;;;;;;;5.80;2.43;;;15.00;74.70;;;;;;5012585;28;20266;-76
2023/04/16 01:48:13;;;;;;;2.97;1.97;;;15.00;75.00;;;;;;5023317;28;20196;-77
2023/04/16 01:50:41;;;;;;;2.37;1.50;;;15.00;74.90;;;;;;5013220;28;20193;-76
2023/04/16 01:53:10;;;;;;;4.03;2.53;;;15.00;75.10;;;;;;5018516;28;20569;-76
2023/04/16 01:55:39;;;;;;;2.63;1.50;;;14.90;76.20;;;;;;5011229;28;20255;-76
2023/04/16 01:58:09;;;;;;;2.50;1.30;;;14.90;75.90;;;;;;5010278;28;20254;-77
2023/04/16 02:00:38;;;;;;;6.10;2.13;;;14.90;76.20;;;;;;5008734;28;20676;-76
2023/04/16 02:03:07;;;;;;;6.67;2.83;;;14.80;77.30;;;;;;4970609;28;1226168;-77
2023/04/16 02:05:35;;;;;;;6.00;2.03;;;14.80;77.20;;;;;;5013095;28;20653;-76
2023/04/16 02:08:04;;;;;;;4.60;1.73;;;14.80;78.00;;;;;;5016746;28;20200;-77
2023/04/16 02:10:32;;;;;;;5.03;2.33;;;14.80;78.10;;;;;;5014440;28;20633;-76
2023/04/16 02:13:02;;;;;;;2.60;1.57;;;14.80;77.90;;;;;;5023376;28;20200;-77
2023/04/16 02:15:30;;;;;;;8.27;2.37;;;14.80;78.90;;;;;;5011843;28;20205;-77
2023/04/16 02:17:58;;;;;;;6.00;2.67;;;14.80;79.10;;;;;;5020049;28;20195;-77
2023/04/16 02:20:27;;;;;;;3.80;2.00;;;14.80;78.00;;;;;;5012438;28;20224;-77
2023/04/16 02:22:56;;;;;;;4.03;1.43;;;14.80;79.60;;;;;;5013382;28;20197;-77
2023/04/16 02:25:24;;;;;;;3.43;2.23;;;14.80;79.30;;;;;;5015573;28;20612;-77
2023/04/16 02:27:52;;;;;;;4.20;2.17;;;14.80;79.80;;;;;;5018035;28;20200;-77
2023/04/16 02:30:23;;;;;;;8.40;2.27;;;14.80;79.50;;;;;;5020383;28;20710;-77
2023/04/16 02:32:51;;;;;;;6.10;2.03;;;14.80;79.60;;;;;;5009023;28;20242;-76
2023/04/16 02:35:20;;;;;;;5.00;2.00;;;14.80;80.20;;;;;;5022310;28;20197;-77
2023/04/16 02:37:48;;;;;;;4.17;2.20;;;14.80;81.60;;;;;;5022836;28;20698;-77
2023/04/16 02:40:17;;;;;;;3.73;2.23;;;14.80;80.50;;;;;;5012295;28;20201;-76
2023/04/16 02:42:45;;;;;;;5.30;2.50;;;14.80;82.10;;;;;;5015700;28;20255;-77
2023/04/16 02:45:13;;;;;;;7.57;2.80;;;14.80;82.40;;;;;;5009364;28;20197;-77
2023/04/16 02:47:43;;;;;;;4.70;2.20;;;14.70;82.80;;;;;;5011172;28;20201;-77
2023/04/16 02:50:12;;;;;;;3.27;2.10;;;14.70;83.50;;;;;;5013018;28;20200;-77
2023/04/16 02:52:40;;;;;;;4.73;2.07;;;14.70;84.10;;;;;;5020444;28;20208;-77
2023/04/16 02:55:10;;;;;;;2.50;1.57;;;14.70;84.40;;;;;;5023541;28;20203;-77
2023/04/16 02:57:38;;;;;;;3.53;2.07;;;14.60;84.80;;;;;;5016453;28;20254;-77
2023/04/16 03:00:08;;;;;;;4.10;2.07;;;14.60;84.30;;;;;;5009417;28;20606;-77
2023/04/16 03:02:36;;;;;;;8.00;2.53;;;14.60;85.20;;;;;;5011493;28;20238;-76
2023/04/16 03:05:07;;;;;;;3.63;2.17;;;14.60;86.20;;;;;;5035293;28;20209;-76
2023/04/16 03:07:37;;;;;;;4.70;2.43;;;14.50;86.20;;;;;;5030434;28;20279;-76
2023/04/16 03:10:07;;;;;;;10.13;2.23;;;14.50;85.90;;;;;;5033709;28;20222;-76
2023/04/16 03:12:35;;;;;;;3.77;2.07;;;14.50;85.00;;;;;;5034733;28;20273;-75
2023/04/16 03:15:05;;;;;;;4.30;2.53;;;14.50;86.10;;;;;;5038701;28;20203;-76
2023/04/16 03:17:33;;;;;;;3.27;1.80;;;14.50;87.00;;;;;;5036960;28;20200;-76
2023/04/16 03:20:02;;;;;;;4.63;2.50;;;14.50;85.80;;;;;;5027397;28;20196;-75
2023/04/16 03:22:31;;;;;;;3.10;1.87;;;14.60;86.20;;;;;;5022937;28;20238;-77
2023/04/16 03:25:00;;;;;;;4.47;2.73;;;14.50;86.80;;;;;;5021124;28;20214;-77
2023/04/16 03:27:28;;;;;;;5.40;2.93;;;14.60;85.90;;;;;;5023323;28;20694;-77
2023/04/16 03:29:56;;;;;;;3.83;2.17;;;14.50;86.40;;;;;;5026966;28;20235;-77
2023/04/16 03:32:25;;;;;;;7.70;2.10;;;14.50;86.80;;;;;;5027538;28;20645;-77
2023/04/16 03:34:53;;;;;;;4.37;2.10;;;14.50;88.10;;;;;;5024909;28;20205;-77
2023/04/16 03:37:22;;;;;;;5.27;2.80;;;14.40;87.40;;;;;;5021453;28;20203;-77
2023/04/16 03:39:52;;;;;;;3.80;1.60;;;14.40;88.90;;;;;;5031436;28;20214;-77
2023/04/16 03:42:20;;;;;;;7.33;2.30;;;14.40;88.40;;;;;;5026536;28;20216;-76
2023/04/16 03:44:48;;;;;;;3.27;1.90;;;14.40;88.90;;;;;;5026685;28;20199;-76
2023/04/16 03:47:17;;;;;;;4.83;2.23;;;14.30;89.50;;;;;;5029276;28;20195;-77
2023/04/16 03:49:45;;;;;;;4.17;2.20;;;14.30;90.00;;;;;;5037140;28;20191;-77
2023/04/16 03:52:14;;;;;;;3.47;2.47;;;14.30;89.90;;;;;;5041390;28;20644;-76
2023/04/16 03:54:42;;;;;;;8.33;2.50;;;14.30;89.50;;;;;;5028519;28;20196;-76
2023/04/16 03:57:12;;;;;;;9.90;2.47;;;14.30;90.00;;;;;;5035428;28;20274;-77
2023/04/16 03:59:40;;;;;;;13.77;3.07;;;14.30;90.20;;;;;;5030457;28;20302;-76
2023/04/16 04:02:08;;;;;;;6.23;1.97;;;14.30;90.40;;;;;;5032738;28;20704;-77
2023/04/16 04:04:37;;;;;;;4.63;2.33;;;14.30;90.10;;;;;;5034754;28;20200;-78
2023/04/16 04:07:05;;;;;;;3.27;2.43;;;14.30;90.00;;;;;;5030262;28;20246;-77
2023/04/16 04:09:34;;;;;;;2.50;1.50;;;14.40;90.00;;;;;;5033683;28;20210;-76
2023/04/16 04:12:02;;;;;;;5.93;2.30;;;14.40;90.40;;;;;;5030529;28;20762;-77
2023/04/16 04:14:32;;;;;;;4.27;2.27;;;14.40;90.30;;;;;;5036321;28;20214;-76
2023/04/16 04:17:00;;;;;;;5.40;2.87;;;14.40;90.10;;;;;;5040554;28;20203;-76
2023/04/16 04:19:28;;;;;;;4.33;2.27;;;14.40;90.40;;;;;;5033604;28;20640;-78
2023/04/16 04:21:57;;;;;;;3.60;2.00;;;14.40;90.40;;;;;;5027281;28;20758;-77
2023/04/16 04:24:25;;;;;;;5.03;2.00;;;14.40;90.70;;;;;;5029436;28;20200;-77
2023/04/16 04:26:54;;;;;;;9.30;2.83;;;14.40;90.70;;;;;;5030618;28;20203;-76
2023/04/16 04:29:22;;;;;;;6.17;2.73;;;14.40;90.70;;;;;;5028659;28;20202;-76
2023/04/16 04:31:52;;;;;;;6.37;2.40;;;14.40;91.20;;;;;;5028670;28;20664;-76
2023/04/16 04:34:20;;;;;;;5.00;2.40;;;14.40;91.10;;;;;;5025410;28;20195;-77
2023/04/16 04:36:49;;;;;;;4.37;1.60;;;14.40;91.00;;;;;;5023867;28;20200;-77
2023/04/16 04:39:19;;;;;;;5.70;2.17;;;14.50;90.90;;;;;;5027042;28;20266;-76
2023/04/16 04:41:47;;;;;;;5.43;1.73;;;14.50;90.90;;;;;;5034802;28;20210;-77
2023/04/16 04:44:16;;;;;;;5.93;2.87;;;14.60;90.90;;;;;;5029210;28;20227;-76
2023/04/16 04:46:44;;;;;;;6.13;2.27;;;14.60;90.70;;;;;;5028426;28;20353;-75
2023/04/16 04:49:14;;;;;;;5.37;2.37;;;14.60;90.70;;;;;;5027886;28;20195;-76
2023/04/16 04:51:42;;;;;;;4.47;2.20;;;14.70;90.60;;;;;;5028281;28;20227;-76
2023/04/16 04:54:11;;;;;;;9.73;2.83;;;14.80;91.00;;;;;;5032844;28;20254;-77
2023/04/16 04:56:39;;;;;;;6.70;2.60;;;14.80;90.70;;;;;;5041946;28;20277;-76
2023/04/16 04:59:07;;;;;;;2.97;1.90;;;14.80;90.80;;;;;;5031323;28;20619;-77
2023/04/16 05:01:36;;;;;;;5.00;2.80;;;14.90;90.70;;;;;;5040096;28;20203;-76
2023/04/16 05:04:05;;;;;;;6.97;2.73;;;14.90;90.80;;;;;;5025592;28;20192;-77
2023/04/16 05:06:35;;;;;;;5.27;2.43;;;14.90;90.70;;;;;;5031459;28;20204;-77
2023/04/16 05:09:03;;;;;;;6.00;2.67;;;15.00;90.70;;;;;;5036292;28;20196;-77
2023/04/16 05:11:34;;;;;;;3.73;2.23;;;15.00;90.80;;;;;;5040309;28;20202;-75
2023/04/16 05:14:02;;;;;;;4.80;2.33;;;15.00;90.80;;;;;;5026642;28;20196;-77
2023/04/16 05:16:31;;;;;;;6.67;2.10;;;15.00;90.90;;;;;;5026806;28;20200;-76
2023/04/16 05:18:59;;;;;;;3.70;2.17;;;15.10;90.70;;;;;;5027856;28;20437;-76
2023/04/16 05:21:27;;;;;;;3.73;2.23;;;15.10;90.80;;;;;;5026710;28;20609;-77
2023/04/16 05:23:58;;;;;;;5.17;2.93;;;15.20;90.80;;;;;;5028320;28;20219;-76
2023/04/16 05:26:27;;;;;;;4.33;2.60;;;15.20;90.70;;;;;;5030953;28;20195;-77
2023/04/16 05:28:55;;;;;;;8.70;2.37;;;15.30;90.70;;;;;;5024319;28;20274;-76
2023/04/16 05:31:23;;;;;;;3.33;2.27;;;15.30;90.80;;;;;;5031797;28;20200;-77
2023/04/16 05:33:52;;;;;;;5.70;2.07;;;15.40;90.60;;;;;;5033948;28;20192;-76
2023/04/16 05:36:20;;;;;;;5.40;2.20;;;15.40;90.60;;;;;;5044373;28;20207;-77
2023/04/16 05:38:48;;;;;;;8.20;2.67;;;15.50;90.70;;;;;;5036578;28;20253;-77
2023/04/16 05:41:18;;;;;;;7.70;2.20;;;15.50;90.60;;;;;;5042437;28;20234;-77
2023/04/16 05:43:47;;;;;;;5.13;3.30;;;15.60;90.60;;;;;;5033943;28;20735;-77
2023/04/16 05:46:15;;;;;;;5.13;1.93;;;15.60;90.60;;;;;;5034530;28;20195;-77
2023/04/16 05:48:44;;;;;;;4.03;2.20;;;15.60;90.60;;;;;;5029035;28;20648;-76
2023/04/16 05:51:12;;;;;;;4.53;2.20;;;15.70;90.80;;;;;;5033261;28;20207;-77
2023/04/16 05:53:40;;;;;;;4.70;2.00;;;15.70;90.70;;;;;;5032424;28;20223;-76
2023/04/16 05:56:09;;;;;;;4.30;2.53;;;15.80;90.70;;;;;;5030995;28;20200;-77
2023/04/16 05:58:39;;;;;;;9.27;2.87;;;15.80;90.60;;;;;;5029286;28;20204;-77
2023/04/16 06:01:07;;;;;;;4.90;2.33;;;15.80;90.70;;;;;;5026613;28;20196;-77
2023/04/16 06:03:35;;;;;;;3.77;2.33;;;15.90;90.50;;;;;;5031307;28;20329;-77
2023/04/16 06:06:04;;;;;;;5.20;2.03;;;15.90;90.50;;;;;;5045756;28;20195;-76
2023/04/16 06:08:32;;;;;;;4.60;1.87;;;16.00;90.40;;;;;;5036012;28;20196;-76
2023/04/16 06:11:01;;;;;;;4.30;1.80;;;16.00;90.40;;;;;;5034476;28;20250;-76
2023/04/16 06:13:29;;;;;;;3.37;1.50;;;16.00;90.40;;;;;;5035985;28;20226;-76
2023/04/16 06:15:59;;;;;;;5.30;2.33;;;16.00;90.20;;;;;;5033611;28;20609;-77
2023/04/16 06:18:27;;;;;;;7.13;2.53;;;16.10;90.60;;;;;;5033205;28;20206;-76
2023/04/16 06:20:57;;;;;;;7.30;2.90;;;16.10;90.30;;;;;;5029562;28;20718;-78
2023/04/16 06:23:26;;;;;;;4.57;2.50;;;16.10;90.40;;;;;;5043251;28;20222;-78
2023/04/16 06:25:54;;;;;;;4.50;1.63;;;16.20;90.30;;;;;;5043722;28;20204;-79
2023/04/16 06:28:22;;;;;;;4.77;1.97;;;16.20;90.80;;;;;;5034290;28;20700;-78
2023/04/16 06:30:51;;;;;;;4.90;2.33;;;16.30;90.50;;;;;;5043122;28;20207;-79
2023/04/16 06:33:20;;;;;;;3.00;1.67;;;16.50;90.40;;;;;;5024695;28;20204;-79
2023/04/16 06:35:49;;;;;;;6.63;2.27;;;16.60;90.40;;;;;;5038802;28;20572;-76
2023/04/16 06:38:18;;;;;;;8.67;2.77;;;16.70;90.40;;;;;;5037817;28;20208;-78
2023/04/16 06:40:46;;;;;;;3.70;1.83;;;16.80;90.30;;;;;;5033033;28;20200;-77
2023/04/16 06:43:16;;;;;;;2.77;1.90;;;16.80;90.40;;;;;;5037666;28;20298;-78
2023/04/16 06:45:45;;;;;;;5.27;2.33;;;16.90;90.30;;;;;;5041552;28;20206;-78
2023/04/16 06:48:13;;;;;;;4.67;2.73;;;17.00;90.20;;;;;;5033332;28;20204;-79
2023/04/16 06:50:43;;;;;;;4.93;2.13;;;17.00;90.10;;;;;;5035552;28;20196;-77
2023/04/16 06:53:11;;;;;;;4.97;2.53;;;17.10;90.00;;;;;;5039960;28;20191;-77
2023/04/16 06:55:39;;;;;;;2.70;1.70;;;17.20;89.90;;;;;;5042639;28;20199;-77
2023/04/16 06:58:08;;;;;;;8.17;2.60;;;17.30;90.00;;;;;;5040507;28;20199;-79
2023/04/16 07:00:36;;;;;;;4.20;2.47;;;17.40;89.80;;;;;;5041070;28;20242;-78
2023/04/16 07:03:04;;;;;;;4.00;2.20;;;17.40;89.60;;;;;;5024747;28;20289;-77
2023/04/16 07:05:33;;;;;;;5.47;2.37;;;17.50;89.60;;;;;;5029283;28;20208;-77
2023/04/16 07:08:03;;;;;;;3.10;2.07;;;17.60;89.70;;;;;;5035998;28;20246;-76
2023/04/16 07:10:31;;;;;;;4.07;2.40;;;17.70;89.50;;;;;;5033513;28;20200;-77
2023/04/16 07:13:00;;;;;;;6.70;2.57;;;17.70;89.30;;;;;;5035105;28;20249;-78
2023/04/16 07:15:28;;;;;;;2.77;1.80;;;17.80;89.90;;;;;;5031338;28;20616;-77
2023/04/16 07:17:57;;;;;;;5.07;1.97;;;17.80;89.00;;;;;;5031822;28;20203;-78
2023/04/16 07:20:25;;;;;;;3.57;1.90;;;17.90;89.00;;;;;;5033195;28;20321;-77
2023/04/16 07:22:54;;;;;;;6.17;1.93;;;18.00;88.80;;;;;;5032803;28;20200;-77
2023/04/16 07:25:23;;;;;;;5.63;2.13;;;18.00;88.80;;;;;;5032271;28;20203;-77
2023/04/16 07:27:52;;;;;;;8.13;3.57;;;18.10;88.70;;;;;;5036739;28;20203;-77
2023/04/16 07:30:20;;;;;;;6.67;3.03;;;18.10;88.80;;;;;;5030190;28;20300;-76
2023/04/16 07:32:49;;;;;;;4.53;2.10;;;18.20;88.80;;;;;;5029398;28;20223;-75
2023/04/16 07:35:17;;;;;;;4.00;2.30;;;18.20;88.80;;;;;;5029593;28;20203;-77
2023/04/16 07:37:46;;;;;;;3.57;1.90;;;18.20;88.60;;;;;;5031394;28;20203;-77
2023/04/16 07:40:14;;;;;;;6.13;2.30;;;18.30;88.30;;;;;;5045282;28;20207;-77
2023/04/16 07:42:44;;;;;;;4.10;1.90;;;18.30;88.20;;;;;;5028035;28;20195;-77
2023/04/16 07:45:12;;;;;;;4.93;2.43;;;18.40;88.10;;;;;;5032303;28;20216;-76
2023/04/16 07:47:41;;;;;;;6.10;2.60;;;18.40;87.90;;;;;;5032199;28;20269;-77
2023/04/16 07:50:10;;;;;;;7.87;3.37;;;18.50;88.10;;;;;;5034133;28;20655;-78
2023/04/16 07:52:40;;;;;;;14.33;2.53;;;18.60;88.00;;;;;;5039152;28;20256;-77
2023/04/16 07:55:09;;;;;;;5.63;2.10;;;18.70;87.90;;;;;;5024340;28;20192;-77
2023/04/16 07:57:38;;;;;;;4.00;2.10;;;18.70;87.80;;;;;;5024335;28;20200;-79
2023/04/16 08:00:09;;;;;;;6.60;2.57;;;18.80;87.60;;;;;;5028494;28;20558;-75
2023/04/16 08:02:38;;;;;;;5.20;2.20;;;18.80;87.50;;;;;;5039613;28;20227;-77
2023/04/16 08:05:07;;;;;;;4.80;2.10;;;18.90;87.40;;;;;;5030401;28;20274;-79
2023/04/16 08:07:36;;;;;;;4.47;2.13;;;18.90;87.00;;;;;;5043289;28;20211;-76
2023/04/16 08:10:05;;;;;;;8.60;2.10;;;18.90;87.00;;;;;;5037289;28;20199;-77
2023/04/16 08:12:33;;;;;;;4.07;2.10;;;18.90;86.80;;;;;;5038221;28;20214;-79
2023/04/16 08:15:02;;;;;;;12.63;3.07;;;19.00;86.70;;;;;;5035346;28;20207;-77
2023/04/16 08:17:33;;;;;;;3.83;2.00;;;19.00;87.00;;;;;;5043061;28;20210;-76
2023/04/16 08:20:01;;;;;;;8.97;2.17;;;18.90;87.00;;;;;;5042577;28;20199;-77
2023/04/16 08:22:30;;;;;;;4.37;2.07;;;18.90;87.00;;;;;;5027414;28;20245;-78
2023/04/16 08:24:58;;;;;;;5.13;2.67;;;18.90;86.80;;;;;;5023805;28;20216;-77
2023/04/16 08:27:26;;;;;;;4.27;2.40;;;18.90;87.20;;;;;;5027881;28;21955;-77
2023/04/16 08:29:55;;;;;;;10.63;3.00;;;18.90;87.10;;;;;;5030876;28;20627;-77
2023/04/16 08:32:23;;;;;;;10.67;2.33;;;18.90;87.00;;;;;;5039925;28;20551;-78
2023/04/16 08:34:53;;;;;;;4.10;2.00;;;18.90;87.00;;;;;;5034544;28;20200;-78
2023/04/16 08:37:21;;;;;;;7.13;2.63;;;19.00;86.90;;;;;;5044857;28;20229;-78
2023/04/16 08:39:50;;;;;;;5.80;2.70;;;19.10;87.00;;;;;;5031491;28;20196;-76
2023/04/16 08:42:33;;;;;;;7.00;2.70;;;19.10;86.70;;;;;;5032733;28;20200;-78
2023/04/16 08:45:07;;;;;;;10.60;2.10;;;19.20;86.70;;;;;;5031206;28;20209;-75
2023/04/16 08:47:36;;;;;;;5.67;2.40;;;19.40;86.60;;;;;;5036198;28;20555;-77
2023/04/16 08:50:08;;;;;;;2.83;1.77;;;19.50;86.50;;;;;;5030518;28;20239;-76
2023/04/16 08:52:41;;;;;;;7.00;3.73;;;19.70;86.10;;;;;;5027336;28;20660;-77
2023/04/16 08:55:13;;;;;;;6.87;3.20;;;19.80;85.90;;;;;;5032276;28;20194;-75
2023/04/16 08:57:47;;;;;;;5.97;2.28;;;19.90;85.50;;;;;;5032768;28;20191;-79
2023/04/16 09:00:16;;;;;;;11.40;2.97;;;20.10;84.80;;;;;;5032823;28;20209;-77
2023/04/16 09:02:45;;;;;;;8.13;3.42;;;20.20;84.60;;;;;;5041561;28;20292;-75
2023/04/16 09:05:17;;;;;;;5.05;2.40;;;20.40;84.30;;;;;;5032438;28;20586;-76
2023/04/16 09:07:47;;;;;;;5.07;2.40;;;20.50;84.00;;;;;;5033778;28;20200;-78
2023/04/16 09:10:16;;;;;;;3.75;2.20;;;20.60;83.30;;;;;;5031233;28;20665;-76
2023/04/16 09:12:44;;;;;;;7.60;3.03;;;20.70;83.10;;;;;;5034782;28;20199;-77
2023/04/16 09:15:14;;;;;;;7.97;3.38;;;20.70;81.90;;;;;;5038952;28;20257;-77
2023/04/16 09:17:42;;;;;;;8.70;3.13;;;20.70;81.30;;;;;;5031027;28;20249;-76
2023/04/16 09:20:11;;;;;;;4.43;2.75;;;20.70;81.00;;;;;;5016266;28;20281;-75
2023/04/16 09:22:41;;;;;;;6.25;2.85;;;20.80;81.20;;;;;;5036517;28;20230;-75
2023/04/16 09:25:13;;;;;;;4.85;2.15;;;20.90;82.20;;;;;;5027196;28;20274;-75
2023/04/16 09:27:45;;;;;;;3.83;2.33;;;20.90;81.30;;;;;;5039733;28;20203;-76
2023/04/16 09:30:23;;;;;;;5.15;2.22;;;20.90;81.00;;;;;;5044432;28;20199;-76
2023/04/16 09:32:52;;;;;;;4.53;2.60;;;20.80;80.70;;;;;;5036839;28;20195;-75
2023/04/16 09:35:45;;;;;;;4.28;2.63;;;20.80;80.70;;;;;;5039251;28;20266;-76
2023/04/16 09:38:15;;;;;;;3.58;2.15;;;20.90;80.50;;;;;;5024167;28;20195;-78
2023/04/16 09:40:46;;;;;;;5.32;2.58;;;20.90;80.50;;;;;;5034770;28;20245;-75
2023/04/16 09:43:18;;;;;;;8.25;2.80;;;20.90;80.40;;;;;;5029906;28;20196;-77
2023/04/16 09:45:55;;;;;;;6.72;3.30;;;21.00;80.10;;;;;;5043575;28;20289;-75
2023/04/16 09:48:31;;;;;;;7.03;3.40;;;21.10;79.80;;;;;;5036652;28;20731;-75
2023/04/16 09:51:00;;;;;;;5.45;2.60;;;21.20;79.60;;;;;;5036607;28;20195;-75
2023/04/16 09:53:33;;;;;;;5.88;2.53;;;21.20;79.70;;;;;;5033236;28;20290;-77
2023/04/16 09:56:03;;;;;;;3.83;1.77;;;21.30;79.50;;;;;;5032303;28;20195;-76
2023/04/16 09:58:32;;;;;;;4.07;2.78;;;21.30;79.10;;;;;;5029000;28;20203;-76
2023/04/16 10:01:02;;;;;;;4.93;2.22;;;21.30;78.60;;;;;;5030330;28;20199;-76
2023/04/16 10:03:31;;;;;;;3.70;1.83;;;21.40;78.20;;;;;;5039798;28;20258;-75
2023/04/16 10:06:01;;;;;;;4.47;2.85;;;21.40;77.70;;;;;;5025839;28;20216;-77
2023/04/16 10:08:31;;;;;;;8.55;3.20;;;21.40;78.00;;;;;;5040536;28;20261;-75
2023/04/16 10:11:00;;;;;;;5.22;2.90;;;21.40;78.00;;;;;;5031946;28;20253;-75
2023/04/16 10:13:30;;;;;;;5.38;2.97;;;21.50;78.30;;;;;;5033571;28;20257;-75
2023/04/16 10:15:58;;;;;;;5.95;3.17;;;21.40;77.90;;;;;;5039823;28;20286;-74
2023/04/16 10:18:27;;;;;;;8.38;3.88;;;21.30;77.80;;;;;;5043207;28;20257;-77
2023/04/16 10:20:55;;;;;;;4.55;2.55;;;21.30;78.00;;;;;;5037805;28;20224;-75
2023/04/16 10:23:24;;;;;;;6.47;3.83;;;21.30;78.30;;;;;;5029952;28;20250;-75
2023/04/16 10:25:55;;;;;;;5.78;3.33;;;21.30;78.50;;;;;;5028771;28;20212;-76
2023/04/16 10:28:25;;;;;;;4.45;2.72;;;21.40;78.40;;;;;;5029791;28;20656;-76
2023/04/16 10:30:56;;;;;;;4.18;2.40;;;21.50;78.50;;;;;;5042684;28;20203;-75
2023/04/16 10:33:28;;;;;;;4.88;2.67;;;21.50;78.30;;;;;;5038132;28;20725;-76
2023/04/16 10:36:09;;;;;;;6.40;2.72;;;21.50;77.90;;;;;;5045831;28;20191;-75
2023/04/16 10:38:40;;;;;;;8.63;3.08;;;21.40;77.80;;;;;;5028171;28;20202;-75
2023/04/16 10:41:10;;;;;;;5.38;2.85;;;21.50;78.10;;;;;;5035007;28;20256;-75
2023/04/16 10:43:43;;;;;;;4.97;3.15;;;21.40;78.50;;;;;;5038710;28;20245;-77
2023/04/16 10:46:20;;;;;;;4.95;2.50;;;21.50;78.70;;;;;;5039331;28;20250;-75
2023/04/16 10:48:49;;;;;;;7.47;2.70;;;21.50;78.70;;;;;;5042462;28;20198;-75
2023/04/16 10:51:30;;;;;;;5.05;2.78;;;21.60;79.10;;;;;;5044212;28;20256;-76
2023/04/16 10:54:04;;;;;;;6.65;2.38;;;21.60;78.90;;;;;;5027606;28;20242;-73
2023/04/16 10:56:34;;;;;;;7.97;3.20;;;21.80;78.80;;;;;;5030199;28;20184;-76
2023/04/16 10:59:06;;;;;;;4.80;2.90;;;21.80;78.80;;;;;;5035369;28;20206;-74
2023/04/16 11:01:36;;;;;;;9.80;3.47;;;21.90;78.30;;;;;;5034110;28;20203;-74
2023/04/16 11:04:34;;;;;;;7.78;4.05;;;21.90;78.10;;;;;;5030607;28;20672;-75
2023/04/16 11:07:13;;;;;;;5.88;2.45;;;22.00;78.00;;;;;;5037711;28;20243;-77
2023/04/16 11:09:47;;;;;;;7.85;3.05;;;22.10;77.70;;;;;;5041600;28;20200;-76
2023/04/16 11:12:18;;;;;;;3.80;2.72;;;22.20;77.00;;;;;;5031165;28;20196;-77
2023/04/16 11:14:49;;;;;;;4.85;2.70;;;22.10;77.10;;;;;;5029971;28;20253;-77
2023/04/16 11:17:18;;;;;;;9.05;3.08;;;21.90;76.70;;;;;;5032290;28;20192;-76
2023/04/16 11:19:47;;;;;;;6.30;3.15;;;21.80;76.90;;;;;;5029678;28;20203;-74
2023/04/16 11:22:17;;;;;;;4.60;2.35;;;21.70;78.50;;;;;;5035596;28;20207;-79
2023/04/16 11:24:54;;;;;;;4.47;2.75;;;21.60;79.30;;;;;;5026308;28;20254;-77
2023/04/16 11:30:30;;;;;;;5.53;2.65;;;21.40;80.60;;;;;;5034504;28;20271;-74
2023/04/16 11:32:58;;;;;;;5.60;3.03;;;21.20;81.00;;;;;;5033523;28;20196;-76
2023/04/16 11:35:27;;;;;;;8.50;3.60;;;21.10;81.60;;;;;;5031663;28;20735;-77
2023/04/16 11:37:57;;;;;;;5.55;2.88;;;21.00;81.60;;;;;;5025495;28;20196;-75
2023/04/16 11:40:29;;;;;;;5.43;3.03;;;20.90;81.70;;;;;;5027408;28;20195;-76
2023/04/16 11:43:02;;;;;;;9.30;3.40;;;20.90;82.10;;;;;;5037713;28;20202;-75
2023/04/16 11:45:31;;;;;;;4.35;2.50;;;20.80;82.70;;;;;;5026289;28;20215;-75
2023/04/16 11:47:59;;;;;;;5.97;2.85;;;20.80;82.50;;;;;;5027169;28;20203;-75
2023/04/16 11:50:29;;;;;;;4.15;2.65;;;20.60;82.60;;;;;;5030207;28;20232;-74
2023/04/16 11:53:06;;;;;;;5.53;3.15;;;20.60;82.60;;;;;;5031399;28;20238;-75
2023/04/16 11:55:43;;;;;;;8.23;2.70;;;20.50;82.80;;;;;;5038893;28;20206;-75
2023/04/16 11:58:15;;;;;;;4.28;2.30;;;20.40;82.50;;;;;;5027481;28;20199;-75
2023/04/16 12:00:44;;;;;;;4.33;2.17;;;20.30;82.10;;;;;;5028896;28;20192;-75
2023/04/16 12:03:12;;;;;;;3.43;2.10;;;20.30;82.10;;;;;;5030310;28;20295;-75
2023/04/16 12:05:41;;;;;;;2.43;1.40;;;20.20;82.10;;;;;;5029463;28;20191;-75
2023/04/16 12:08:11;;;;;;;4.67;2.07;;;20.20;81.80;;;;;;5039777;28;20265;-76
2023/04/16 12:10:55;;;;;;;3.63;1.73;;;20.10;81.40;;;;;;5031205;28;20208;-75
2023/04/16 12:13:25;;;;;;;3.77;1.97;;;20.00;81.60;;;;;;5031847;28;20719;-75
2023/04/16 12:15:54;;;;;;;3.57;2.03;;;20.00;82.70;;;;;;5037340;28;20245;-78
2023/04/16 12:18:25;;;;;;;4.87;1.73;;;19.90;82.20;;;;;;5039930;28;20199;-76
2023/04/16 12:20:54;;;;;;;3.53;1.90;;;19.90;82.20;;;;;;5031931;28;20279;-76
2023/04/16 12:23:24;;;;;;;3.07;1.47;;;19.80;82.70;;;;;;5041711;28;20207;-74
2023/04/16 12:25:52;;;;;;;4.53;1.97;;;19.70;83.00;;;;;;5033437;28;20222;-76
2023/04/16 12:28:30;;;;;;;3.63;1.80;;;19.60;83.20;;;;;;5039929;28;20203;-75
2023/04/16 12:30:59;;;;;;;2.30;1.70;;;19.40;84.10;;;;;;5026249;28;20199;-76
2023/04/16 12:33:27;;;;;;;5.70;2.67;;;19.30;85.20;;;;;;5039143;28;20241;-75
2023/04/16 12:35:56;;;;;;;6.53;2.10;;;19.20;85.70;;;;;;5040240;28;20294;-74
2023/04/16 12:38:25;;;;;;;5.97;2.33;;;19.10;86.30;;;;;;5046544;28;20311;-75
2023/04/16 12:40:55;;;;;;;5.10;2.37;;;19.00;87.50;;;;;;5035978;28;20211;-74
2023/04/16 12:43:25;;;;;;;2.50;1.60;;;18.90;88.70;;;;;;5028641;28;20196;-74
2023/04/16 12:45:55;;;;;;;3.40;1.40;;;18.80;88.30;;;;;;5031585;28;20205;-74
2023/04/16 12:48:23;;;;;;;3.67;1.30;;;18.70;89.60;;;;;;5031600;28;20286;-73
2023/04/16 12:50:54;;;;;;;1.40;1.00;;;18.60;90.10;;;;;;5037596;28;20280;-74
2023/04/16 12:53:22;;;;;;;1.77;1.10;;;18.50;90.20;;;;;;5050018;28;20217;-75
2023/04/16 12:55:51;;;;;;;2.67;1.30;;;18.50;90.20;;;;;;5038334;28;20203;-74
2023/04/16 12:58:19;;;;;;;3.00;1.60;;;18.40;90.40;;;;;;5030811;28;20257;-76
2023/04/16 13:00:48;;;;;;;5.27;2.23;;;18.30;91.10;;;;;;5038087;28;20551;-75